createdAt,value
2019-01-29T00:01:56.667Z,1.40
2019-01-29T00:04:25.763Z,1.40
2019-01-29T00:06:54.883Z,1.40
2019-01-29T00:09:24.070Z,1.50
2019-01-29T00:11:53.195Z,1.50
2019-01-29T00:14:22.300Z,1.50
2019-01-29T00:16:51.407Z,1.50
2019-01-29T00:19:20.506Z,1.60
2019-01-29T00:21:49.610Z,1.60
2019-01-29T00:24:18.719Z,1.60
2019-01-29T00:26:47.822Z,1.60
2019-01-29T00:29:16.918Z,1.70
2019-01-29T00:31:46.034Z,1.70
2019-01-29T00:34:15.127Z,1.70
2019-01-29T00:36:44.308Z,1.70
2019-01-29T00:39:13.395Z,1.70
2019-01-29T00:41:42.515Z,1.70
2019-01-29T00:44:11.619Z,1.70
2019-01-29T00:46:40.730Z,1.70
2019-01-29T00:49:09.831Z,1.70
2019-01-29T00:51:38.938Z,1.70
2019-01-29T00:54:08.038Z,1.70
2019-01-29T00:56:37.145Z,1.70
2019-01-29T00:59:06.244Z,1.80
2019-01-29T01:01:35.355Z,1.80
2019-01-29T01:04:04.526Z,1.80
2019-01-29T01:06:34.623Z,1.80
2019-01-29T01:09:05.424Z,1.80
2019-01-29T01:11:34.519Z,1.80
2019-01-29T01:14:04.602Z,1.80
2019-01-29T01:16:33.706Z,1.90
2019-01-29T01:19:02.814Z,1.80
2019-01-29T01:21:31.916Z,1.80
2019-01-29T01:24:01.037Z,1.80
2019-01-29T01:26:30.129Z,1.80
2019-01-29T01:28:59.237Z,1.80
2019-01-29T01:31:28.339Z,1.70
2019-01-29T01:33:57.452Z,1.70
2019-01-29T01:36:26.547Z,1.70
2019-01-29T01:38:55.663Z,1.70
2019-01-29T01:41:24.865Z,1.70
2019-01-29T01:43:53.978Z,1.70
2019-01-29T01:46:23.077Z,1.70
2019-01-29T01:48:52.186Z,1.70
2019-01-29T01:51:21.282Z,1.70
2019-01-29T01:53:50.395Z,1.70
2019-01-29T01:56:19.498Z,1.70
2019-01-29T01:58:48.628Z,1.60
2019-01-29T02:01:17.714Z,1.60
2019-01-29T02:03:47.039Z,1.60
2019-01-29T02:06:17.869Z,1.60
2019-01-29T02:08:47.001Z,1.60
2019-01-29T02:11:16.192Z,1.50
2019-01-29T02:13:45.417Z,1.50
2019-01-29T02:16:14.570Z,1.50
2019-01-29T02:18:43.679Z,1.40
2019-01-29T02:21:12.774Z,1.40
2019-01-29T02:23:41.883Z,1.30
2019-01-29T02:26:10.977Z,1.30
2019-01-29T02:28:40.094Z,1.30
2019-01-29T02:31:09.270Z,1.30
2019-01-29T02:33:38.595Z,1.30
2019-01-29T02:36:07.697Z,1.30
2019-01-29T02:38:36.799Z,1.40
2019-01-29T02:41:05.908Z,1.30
2019-01-29T02:43:35.150Z,1.30
2019-01-29T02:46:04.311Z,1.30
2019-01-29T02:48:33.413Z,1.40
2019-01-29T02:51:02.662Z,1.30
2019-01-29T02:53:31.807Z,1.30
2019-01-29T02:56:00.957Z,1.40
2019-01-29T02:58:30.053Z,1.40
2019-01-29T03:00:59.166Z,1.40
2019-01-29T03:03:28.266Z,1.50
2019-01-29T03:05:57.378Z,1.50
2019-01-29T03:08:26.494Z,1.40
2019-01-29T03:10:55.602Z,1.50
2019-01-29T03:13:24.717Z,1.50
2019-01-29T03:15:53.827Z,1.50
2019-01-29T03:18:22.931Z,1.50
2019-01-29T03:20:52.032Z,1.50
2019-01-29T03:23:27.276Z,1.50
2019-01-29T03:25:51.939Z,1.50
2019-01-29T03:28:21.037Z,1.50
2019-01-29T03:30:50.160Z,1.50
2019-01-29T03:33:19.377Z,1.50
2019-01-29T03:35:48.545Z,1.50
2019-01-29T03:38:17.911Z,1.50
2019-01-29T03:40:47.051Z,1.50
2019-01-29T03:43:16.172Z,1.60
2019-01-29T03:45:45.313Z,1.50
2019-01-29T03:48:14.438Z,1.50
2019-01-29T03:50:43.533Z,1.50
2019-01-29T03:53:12.633Z,1.50
2019-01-29T03:55:41.743Z,1.60
2019-01-29T03:58:10.838Z,1.60
2019-01-29T04:00:39.943Z,1.60
2019-01-29T04:03:09.103Z,1.60
2019-01-29T04:05:38.227Z,1.60
2019-01-29T04:08:07.323Z,1.60
2019-01-29T04:10:36.443Z,1.60
2019-01-29T04:13:05.542Z,1.60
2019-01-29T04:15:34.664Z,1.50
2019-01-29T04:18:03.774Z,1.50
2019-01-29T04:20:32.882Z,1.40
2019-01-29T04:23:01.999Z,1.40
2019-01-29T04:25:31.087Z,1.40
2019-01-29T04:28:00.200Z,1.30
2019-01-29T04:30:29.311Z,1.30
2019-01-29T04:32:58.422Z,1.30
2019-01-29T04:35:27.544Z,1.30
2019-01-29T04:37:56.637Z,1.30
2019-01-29T04:40:25.742Z,1.30
2019-01-29T04:42:54.855Z,1.30
2019-01-29T04:45:23.959Z,1.30
2019-01-29T04:47:53.193Z,1.30
2019-01-29T04:50:22.290Z,1.30
2019-01-29T04:52:51.399Z,1.30
2019-01-29T04:55:20.502Z,1.30
2019-01-29T04:57:49.639Z,1.30
2019-01-29T05:00:20.874Z,1.30
2019-01-29T05:02:49.987Z,1.30
2019-01-29T05:05:19.449Z,1.30
2019-01-29T05:07:48.614Z,1.30
2019-01-29T05:10:19.047Z,1.30
2019-01-29T05:12:48.174Z,1.30
2019-01-29T05:15:20.202Z,1.30
2019-01-29T05:17:49.313Z,1.20
2019-01-29T05:20:20.926Z,1.20
2019-01-29T05:22:50.031Z,1.30
2019-01-29T05:25:19.127Z,1.30
2019-01-29T05:27:48.241Z,1.30
2019-01-29T05:30:22.339Z,1.30
2019-01-29T05:32:51.442Z,1.30
2019-01-29T05:35:20.541Z,1.30
2019-01-29T05:37:49.648Z,1.30
2019-01-29T05:40:21.443Z,1.30
2019-01-29T05:42:50.646Z,1.20
2019-01-29T05:45:20.987Z,1.20
2019-01-29T05:47:50.086Z,1.20
2019-01-29T05:50:19.183Z,1.10
2019-01-29T05:52:48.289Z,1.10
2019-01-29T05:55:17.382Z,1.10
2019-01-29T05:57:46.562Z,1.00
2019-01-29T06:00:18.675Z,1.00
2019-01-29T06:02:48.689Z,1.00
2019-01-29T06:05:17.965Z,1.00
2019-01-29T06:07:47.078Z,1.00
2019-01-29T06:10:17.115Z,1.00
2019-01-29T06:12:46.228Z,1.00
2019-01-29T06:15:23.591Z,1.00
2019-01-29T06:17:52.702Z,1.10
2019-01-29T06:20:24.607Z,1.00
2019-01-29T06:22:53.703Z,1.10
2019-01-29T06:25:22.884Z,1.10
2019-01-29T06:27:52.098Z,1.10
2019-01-29T06:30:23.767Z,1.10
2019-01-29T06:32:54.491Z,1.10
2019-01-29T06:35:25.219Z,1.10
2019-01-29T06:37:54.324Z,1.00
2019-01-29T06:40:27.349Z,1.00
2019-01-29T06:42:56.487Z,1.00
2019-01-29T06:45:26.550Z,1.00
2019-01-29T06:47:55.668Z,1.00
2019-01-29T06:50:26.402Z,1.00
2019-01-29T06:52:55.782Z,0.90
2019-01-29T06:55:25.513Z,0.90
2019-01-29T06:57:56.013Z,1.00
2019-01-29T07:00:30.678Z,0.90
2019-01-29T07:03:00.620Z,1.00
2019-01-29T07:05:29.712Z,1.00
2019-01-29T07:07:58.835Z,1.00
2019-01-29T07:10:28.068Z,1.00
2019-01-29T07:12:57.179Z,1.00
2019-01-29T07:15:47.727Z,1.00
2019-01-29T07:18:27.176Z,1.10
2019-01-29T07:20:56.271Z,1.10
2019-01-29T07:23:25.384Z,1.10
2019-01-29T07:25:54.489Z,1.10
2019-01-29T07:28:23.615Z,1.10
2019-01-29T07:30:52.715Z,1.20
2019-01-29T07:33:21.815Z,1.20
2019-01-29T07:35:50.951Z,1.20
2019-01-29T07:38:20.059Z,1.20
2019-01-29T07:40:49.172Z,1.20
2019-01-29T07:43:18.270Z,1.20
2019-01-29T07:45:47.373Z,1.20
2019-01-29T07:48:16.475Z,1.20
2019-01-29T07:50:45.589Z,1.30
2019-01-29T07:53:14.699Z,1.30
2019-01-29T07:55:43.790Z,1.30
2019-01-29T07:58:13.939Z,1.30
2019-01-29T08:00:43.042Z,1.40
2019-01-29T08:03:12.149Z,1.40
2019-01-29T08:05:41.251Z,1.40
2019-01-29T08:08:10.351Z,1.40
2019-01-29T08:10:39.469Z,1.40
2019-01-29T08:13:08.571Z,1.40
2019-01-29T08:15:37.695Z,1.40
2019-01-29T08:18:06.863Z,1.40
2019-01-29T08:20:35.977Z,1.50
2019-01-29T08:23:05.068Z,1.50
2019-01-29T08:25:34.185Z,1.50
2019-01-29T08:28:03.354Z,1.50
2019-01-29T08:30:32.467Z,1.50
2019-01-29T08:33:01.579Z,1.50
2019-01-29T08:35:30.699Z,1.50
2019-01-29T08:37:59.802Z,1.60
2019-01-29T08:40:28.915Z,1.60
2019-01-29T08:42:58.014Z,1.70
2019-01-29T08:45:27.181Z,1.70
2019-01-29T08:47:56.295Z,1.70
2019-01-29T08:50:26.447Z,1.70
2019-01-29T08:52:55.547Z,1.80
2019-01-29T08:55:24.657Z,1.80
2019-01-29T08:57:53.759Z,1.90
2019-01-29T09:00:23.239Z,1.90
2019-01-29T09:02:52.354Z,1.90
2019-01-29T09:05:21.471Z,2.00
2019-01-29T09:07:50.600Z,2.00
2019-01-29T09:10:20.751Z,2.00
2019-01-29T09:12:49.873Z,2.00
2019-01-29T09:15:20.483Z,2.00
2019-01-29T09:17:49.583Z,1.90
2019-01-29T09:20:20.226Z,1.90
2019-01-29T09:22:49.331Z,1.90
2019-01-29T09:25:22.566Z,1.90
2019-01-29T09:27:50.830Z,1.90
2019-01-29T09:30:20.470Z,1.90
2019-01-29T09:32:49.579Z,2.00
2019-01-29T09:35:18.683Z,2.00
2019-01-29T09:37:47.795Z,1.90
2019-01-29T09:40:20.153Z,1.90
2019-01-29T09:42:49.279Z,1.90
2019-01-29T09:45:19.546Z,1.90
2019-01-29T09:47:48.699Z,2.10
2019-01-29T09:50:23.898Z,2.10
2019-01-29T09:52:53.204Z,2.10
2019-01-29T09:55:28.886Z,2.10
2019-01-29T09:57:54.144Z,2.10
2019-01-29T10:00:33.845Z,2.20
2019-01-29T10:03:02.959Z,2.10
2019-01-29T10:05:33.035Z,2.00
2019-01-29T10:08:02.255Z,2.00
2019-01-29T10:10:31.350Z,2.00
2019-01-29T10:13:00.458Z,2.10
2019-01-29T10:15:34.566Z,2.20
2019-01-29T10:18:04.248Z,2.30
2019-01-29T10:20:33.347Z,2.40
2019-01-29T10:23:02.589Z,2.30
2019-01-29T10:25:37.518Z,2.70
2019-01-29T10:28:02.606Z,2.80
2019-01-29T10:30:31.702Z,2.70
2019-01-29T10:33:00.843Z,2.70
2019-01-29T10:35:29.951Z,3.00
2019-01-29T10:37:59.058Z,3.00
2019-01-29T10:40:28.270Z,2.80
2019-01-29T10:42:57.932Z,2.60
2019-01-29T10:45:28.870Z,2.50
2019-01-29T10:47:58.003Z,2.60
2019-01-29T10:50:29.601Z,2.50
2019-01-29T10:52:59.083Z,2.40
2019-01-29T10:55:28.187Z,2.40
2019-01-29T10:57:57.468Z,2.50
2019-01-29T11:00:29.323Z,2.50
2019-01-29T11:02:58.428Z,2.50
2019-01-29T11:05:27.527Z,2.50
2019-01-29T11:07:56.638Z,2.50
2019-01-29T11:10:25.734Z,2.50
2019-01-29T11:12:54.847Z,2.40
2019-01-29T11:15:26.947Z,2.50
2019-01-29T11:17:56.124Z,2.50
2019-01-29T11:20:25.218Z,2.40
2019-01-29T11:22:54.573Z,2.50
2019-01-29T11:25:28.748Z,2.50
2019-01-29T11:27:57.861Z,2.50
2019-01-29T11:30:28.799Z,2.60
2019-01-29T11:32:57.911Z,2.60
2019-01-29T11:35:27.013Z,2.60
2019-01-29T11:37:56.198Z,2.60
2019-01-29T11:40:27.429Z,2.60
2019-01-29T11:42:57.720Z,2.50
2019-01-29T11:45:35.412Z,2.60
2019-01-29T11:48:04.527Z,2.60
2019-01-29T11:50:33.626Z,2.70
2019-01-29T11:53:02.758Z,2.80
2019-01-29T11:55:31.855Z,2.80
2019-01-29T11:58:00.983Z,2.90
2019-01-29T12:00:39.719Z,3.00
2019-01-29T12:03:08.830Z,3.10
2019-01-29T12:05:37.923Z,3.20
2019-01-29T12:08:07.994Z,3.30
2019-01-29T12:10:37.210Z,3.30
2019-01-29T12:13:06.325Z,3.20
2019-01-29T12:15:35.427Z,3.20
2019-01-29T12:18:05.167Z,3.20
2019-01-29T12:20:34.281Z,3.10
2019-01-29T12:23:03.390Z,3.10
2019-01-29T12:25:32.531Z,3.10
2019-01-29T12:28:01.635Z,3.10
2019-01-29T12:30:30.742Z,3.30
2019-01-29T12:33:01.688Z,3.30
2019-01-29T12:35:31.770Z,3.40
2019-01-29T12:38:00.863Z,3.50
2019-01-29T12:40:30.958Z,3.70
2019-01-29T12:43:00.047Z,4.00
2019-01-29T12:45:29.154Z,4.30
2019-01-29T12:47:58.262Z,4.40
2019-01-29T12:50:29.888Z,4.60
2019-01-29T12:53:00.634Z,4.70
2019-01-29T12:55:29.734Z,4.50
2019-01-29T12:57:58.838Z,4.40
2019-01-29T13:00:29.658Z,4.10
2019-01-29T13:02:58.756Z,4.10
2019-01-29T13:05:27.871Z,4.40
2019-01-29T13:07:56.970Z,4.40
2019-01-29T13:10:26.454Z,4.10
2019-01-29T13:12:55.550Z,3.90
2019-01-29T13:15:28.164Z,3.80
2019-01-29T13:17:58.902Z,3.80
2019-01-29T13:20:28.027Z,3.90
2019-01-29T13:22:57.127Z,3.90
2019-01-29T13:25:26.242Z,3.90
2019-01-29T13:27:55.338Z,3.80
2019-01-29T13:30:34.939Z,3.80
2019-01-29T13:33:06.656Z,3.80
2019-01-29T13:35:36.695Z,3.90
2019-01-29T13:38:06.749Z,3.90
2019-01-29T13:40:35.923Z,3.90
2019-01-29T13:43:05.659Z,3.80
2019-01-29T13:45:34.776Z,3.70
2019-01-29T13:48:04.243Z,3.70
2019-01-29T13:50:38.604Z,3.70
2019-01-29T13:53:08.774Z,3.60
2019-01-29T13:55:37.894Z,3.60
2019-01-29T13:58:08.126Z,3.60
2019-01-29T14:00:40.667Z,3.80
2019-01-29T14:03:11.975Z,4.30
2019-01-29T14:05:41.076Z,4.80
2019-01-29T14:08:10.180Z,5.00
2019-01-29T14:10:39.282Z,4.90
2019-01-29T14:13:08.383Z,4.80
2019-01-29T14:15:39.136Z,4.90
2019-01-29T14:18:08.508Z,5.10
2019-01-29T14:20:37.611Z,5.20
2019-01-29T14:23:08.047Z,5.30
2019-01-29T14:25:37.150Z,5.20
2019-01-29T14:28:06.319Z,5.30
2019-01-29T14:30:36.495Z,5.60
2019-01-29T14:33:06.544Z,5.70
2019-01-29T14:35:35.659Z,5.90
2019-01-29T14:38:16.743Z,5.80
2019-01-29T14:40:45.851Z,5.60
2019-01-29T14:43:18.289Z,5.40
2019-01-29T14:45:47.400Z,5.10
2019-01-29T14:48:16.495Z,4.70
2019-01-29T14:50:45.627Z,4.60
2019-01-29T14:53:14.734Z,4.30
2019-01-29T14:55:43.848Z,4.20
2019-01-29T14:58:12.947Z,4.20
2019-01-29T15:00:42.058Z,4.20
2019-01-29T15:03:11.409Z,4.20
2019-01-29T15:05:40.753Z,4.30
2019-01-29T15:08:09.932Z,4.50
2019-01-29T15:10:39.127Z,4.60
2019-01-29T15:13:08.293Z,4.50
2019-01-29T15:15:39.523Z,4.50
2019-01-29T15:18:28.539Z,4.40
2019-01-29T15:20:57.659Z,4.30
2019-01-29T15:23:26.755Z,4.00
2019-01-29T15:25:55.876Z,3.80
2019-01-29T15:28:25.056Z,3.70
2019-01-29T15:30:54.160Z,3.60
2019-01-29T15:33:23.259Z,3.50
2019-01-29T15:35:52.372Z,3.30
2019-01-29T15:38:21.572Z,3.20
2019-01-29T15:40:50.758Z,3.10
2019-01-29T15:43:19.918Z,3.10
2019-01-29T15:45:50.729Z,3.00
2019-01-29T15:48:22.639Z,2.90
2019-01-29T15:50:51.747Z,2.80
2019-01-29T15:53:20.881Z,2.70
2019-01-29T15:55:49.979Z,2.70
2019-01-29T15:58:19.097Z,2.60
2019-01-29T16:00:48.204Z,2.60
2019-01-29T16:03:17.318Z,2.50
2019-01-29T16:05:46.420Z,2.40
2019-01-29T16:08:15.530Z,2.30
2019-01-29T16:10:46.070Z,2.30
2019-01-29T16:13:15.191Z,2.20
2019-01-29T16:15:44.303Z,2.10
2019-01-29T16:18:13.997Z,2.00
2019-01-29T16:20:43.103Z,2.00
2019-01-29T16:23:12.213Z,1.90
2019-01-29T16:25:41.316Z,1.90
2019-01-29T16:28:10.423Z,1.80
2019-01-29T16:30:39.695Z,1.80
2019-01-29T16:33:08.821Z,1.80
2019-01-29T16:35:43.208Z,1.60
2019-01-29T16:38:12.382Z,1.80
2019-01-29T16:40:43.418Z,1.70
2019-01-29T16:43:12.547Z,1.70
2019-01-29T16:45:41.651Z,1.70
2019-01-29T16:48:11.159Z,1.60
2019-01-29T16:50:40.257Z,1.60
2019-01-29T16:53:09.641Z,1.50
2019-01-29T16:55:38.743Z,1.50
2019-01-29T16:58:07.852Z,1.50
2019-01-29T17:00:39.294Z,1.40
2019-01-29T17:03:08.475Z,1.50
2019-01-29T17:05:37.583Z,1.40
2019-01-29T17:08:06.709Z,1.40
2019-01-29T17:10:35.825Z,1.40
2019-01-29T17:13:05.465Z,1.30
2019-01-29T17:15:38.240Z,1.30
2019-01-29T17:18:08.182Z,1.30
2019-01-29T17:20:44.650Z,1.20
2019-01-29T17:23:13.770Z,1.20
2019-01-29T17:25:42.875Z,1.20
2019-01-29T17:28:11.978Z,1.20
2019-01-29T17:30:44.944Z,1.30
2019-01-29T17:33:16.392Z,1.30
2019-01-29T17:35:45.715Z,1.30
2019-01-29T17:38:14.883Z,1.20
2019-01-29T17:56:24.263Z,1.20
2019-01-29T17:58:53.384Z,1.20
2019-01-29T18:01:22.523Z,1.20
2019-01-29T18:03:51.651Z,1.20
2019-01-29T18:06:24.102Z,1.20
2019-01-29T18:08:53.273Z,1.20
2019-01-29T18:11:22.403Z,1.10
2019-01-29T18:13:51.534Z,1.00
2019-01-29T18:16:20.632Z,1.00
2019-01-29T18:18:49.748Z,1.00
2019-01-29T18:21:19.034Z,1.00
2019-01-29T18:23:48.257Z,1.00
2019-01-29T18:26:17.387Z,1.00
2019-01-29T18:28:46.547Z,1.00
2019-01-29T18:31:16.475Z,1.00
2019-01-29T18:33:45.599Z,0.90
2019-01-29T18:36:14.710Z,0.90
2019-01-29T18:38:43.882Z,0.80
2019-01-29T18:41:12.983Z,0.70
2019-01-29T18:43:42.168Z,0.60
2019-01-29T18:46:12.472Z,0.40
2019-01-29T18:48:41.597Z,0.30
2019-01-29T18:51:10.708Z,0.20
2019-01-29T18:53:39.976Z,0.20
2019-01-29T18:56:09.122Z,0.20
2019-01-29T18:58:45.409Z,0.20
2019-01-29T19:01:14.530Z,0.20
2019-01-29T19:03:43.648Z,0.20
2019-01-29T19:06:12.749Z,0.10
2019-01-29T19:08:43.277Z,0.10
2019-01-29T19:11:13.593Z,0.20
2019-01-29T19:13:42.692Z,0.20
2019-01-29T19:16:11.911Z,0.20
2019-01-29T19:18:42.922Z,0.20
2019-01-29T19:21:12.034Z,0.00
2019-01-29T19:23:41.161Z,-0.10
2019-01-29T19:26:10.315Z,-0.10
2019-01-29T19:28:39.449Z,-0.10
2019-01-29T20:38:36.717Z,0.30
2019-01-29T20:41:05.895Z,0.30
2019-01-29T20:43:35.094Z,0.30
2019-01-29T20:46:04.223Z,0.30
2019-01-29T20:48:33.323Z,0.30
2019-01-29T20:51:02.431Z,0.30
2019-01-29T20:53:31.536Z,0.30
2019-01-29T20:56:02.270Z,0.40
2019-01-29T20:58:31.376Z,0.30
2019-01-29T21:01:00.495Z,0.40
2019-01-29T21:03:29.595Z,0.50
2019-01-29T21:06:00.355Z,0.50
2019-01-29T21:08:29.475Z,0.50
2019-01-29T21:11:00.220Z,0.50
2019-01-29T21:13:29.322Z,0.50
2019-01-29T21:15:58.452Z,0.50
2019-01-29T21:18:27.587Z,0.60
2019-01-29T21:20:57.389Z,0.50
2019-01-29T21:23:26.796Z,0.40
2019-01-29T21:25:55.932Z,0.40
2019-01-29T21:28:25.111Z,0.40
2019-01-29T21:30:54.207Z,0.40
2019-01-29T21:33:23.331Z,0.50
2019-01-29T21:35:52.452Z,0.50
2019-01-29T21:38:21.587Z,0.50
2019-01-29T21:40:50.722Z,0.50
2019-01-29T21:43:19.827Z,0.50
2019-01-29T21:45:48.928Z,0.60
2019-01-29T21:48:18.148Z,0.50
2019-01-29T21:50:47.263Z,0.50
2019-01-29T21:53:16.384Z,0.50
2019-01-29T21:55:45.498Z,0.50
2019-01-29T21:58:14.605Z,0.50
2019-01-29T22:00:43.703Z,0.40
2019-01-29T22:03:12.827Z,0.40
2019-01-29T22:39:07.324Z,-0.20
2019-01-29T22:41:36.503Z,-0.20
2019-01-29T22:44:05.623Z,-0.30
2019-01-29T22:46:34.727Z,-0.30
2019-01-29T22:49:03.851Z,-0.30
2019-01-29T22:51:32.970Z,-0.30
2019-01-29T22:54:02.100Z,-0.30
2019-01-29T22:56:31.211Z,-0.30
2019-01-29T22:59:00.327Z,-0.30
2019-01-29T23:01:31.376Z,-0.30
2019-01-29T23:04:00.754Z,-0.30
2019-01-29T23:06:33.228Z,-0.30
2019-01-29T23:09:03.219Z,-0.20
2019-01-29T23:11:33.964Z,-0.20
2019-01-29T23:14:03.059Z,-0.10
2019-01-29T23:16:32.160Z,0.00
2019-01-29T23:19:01.280Z,0.10
2019-01-29T23:21:30.376Z,0.20
2019-01-29T23:23:59.486Z,0.20
2019-01-29T23:26:28.667Z,0.20
2019-01-29T23:28:57.859Z,0.20
2019-01-29T23:31:26.958Z,0.20
2019-01-29T23:33:56.075Z,0.20
2019-01-29T23:36:25.191Z,0.10
2019-01-29T23:38:54.302Z,0.00
2019-01-29T23:41:24.480Z,0.10
2019-01-29T23:43:53.588Z,0.00
2019-01-29T23:46:22.694Z,0.00
2019-01-29T23:48:51.838Z,0.00
2019-01-29T23:51:20.938Z,0.00
2019-01-29T23:53:50.063Z,0.00
2019-01-29T23:56:19.159Z,0.00
2019-01-29T23:58:48.290Z,0.00
